UAL2743 KLAX-KEWR
Flight info
| Callsign | UAL2743 |
|---|---|
| Flight time | N/A |
| Altitude | 35000 |
| Route | ORCKA5 LAS J146 DVC HBU MCK OVR/N0447F370 DSM EVOTE NELLS KEEHO J584 SLT FQM3 |
| Aircraft | B738/M-SDE2E3FGHIRWXY/LB1 |
Departure
| Time | N/A |
|---|---|
| Airport | Los Angeles International Airport (KLAX) |
Arrival
| Time | 2026-04-23 13:38 |
|---|---|
| Airport | Newark Liberty International Airport (KEWR) |
| Time | Latitude | Longitude | Altitude | Speed | Heading |
|---|---|---|---|---|---|
| 2026-04-23 12:19 | 41.94570 | -84.30498 | 35072 ft | 474 kts | 88° |
| 2026-04-23 12:19 | 41.94526 | -84.26067 | 35061 ft | 474 kts | 88° |
| 2026-04-23 12:20 | 41.94433 | -84.17210 | 35075 ft | 474 kts | 88° |
| 2026-04-23 12:20 | 41.94333 | -84.08352 | 35078 ft | 474 kts | 88° |
| 2026-04-23 12:21 | 41.94226 | -83.99503 | 35070 ft | 473 kts | 88° |
| 2026-04-23 12:21 | 41.94114 | -83.90703 | 35072 ft | 473 kts | 88° |
| 2026-04-23 12:22 | 41.93994 | -83.81865 | 35068 ft | 473 kts | 88° |
| 2026-04-23 12:22 | 41.93868 | -83.73034 | 35059 ft | 473 kts | 88° |
| 2026-04-23 12:23 | 41.93734 | -83.64186 | 35068 ft | 472 kts | 88° |
| 2026-04-23 12:23 | 41.93619 | -83.56853 | 35074 ft | 472 kts | 88° |
| 2026-04-23 12:24 | 41.93491 | -83.48956 | 35072 ft | 472 kts | 88° |
| 2026-04-23 12:24 | 41.93429 | -83.40148 | 35074 ft | 471 kts | 87° |
| 2026-04-23 12:25 | 41.93413 | -83.31359 | 35074 ft | 471 kts | 86° |
| 2026-04-23 12:25 | 41.93383 | -83.22554 | 35070 ft | 471 kts | 87° |
| 2026-04-23 12:26 | 41.93337 | -83.13800 | 35074 ft | 471 kts | 87° |
| 2026-04-23 12:26 | 41.93280 | -83.05009 | 35077 ft | 470 kts | 87° |
| 2026-04-23 12:27 | 41.93216 | -82.96222 | 35076 ft | 470 kts | 87° |
| 2026-04-23 12:27 | 41.93145 | -82.87427 | 35067 ft | 470 kts | 87° |
| 2026-04-23 12:28 | 41.93130 | -82.85691 | 35067 ft | 470 kts | 87° |
| 2026-04-23 12:29 | 41.93122 | -82.84661 | 35065 ft | 470 kts | 87° |
| 2026-04-23 12:29 | 41.93043 | -82.75875 | 35067 ft | 470 kts | 87° |
| 2026-04-23 12:30 | 41.92957 | -82.67089 | 35071 ft | 470 kts | 87° |
| 2026-04-23 12:30 | 41.92864 | -82.58290 | 35077 ft | 471 kts | 87° |
| 2026-04-23 12:31 | 41.92765 | -82.49501 | 35080 ft | 471 kts | 87° |
| 2026-04-23 12:31 | 41.92660 | -82.40753 | 35083 ft | 471 kts | 87° |
| 2026-04-23 12:32 | 41.92547 | -82.31963 | 35089 ft | 471 kts | 86° |
| 2026-04-23 12:32 | 41.92428 | -82.23162 | 35095 ft | 471 kts | 86° |
| 2026-04-23 12:33 | 41.92302 | -82.14359 | 35096 ft | 471 kts | 86° |
| 2026-04-23 12:33 | 41.92169 | -82.05558 | 35100 ft | 472 kts | 86° |
| 2026-04-23 12:34 | 41.92029 | -81.96753 | 35097 ft | 472 kts | 86° |
| 2026-04-23 12:34 | 41.91884 | -81.87930 | 35096 ft | 472 kts | 86° |
| 2026-04-23 12:35 | 41.91556 | -81.79121 | 35102 ft | 474 kts | 91° |
| 2026-04-23 12:35 | 41.90771 | -81.70362 | 35094 ft | 475 kts | 93° |
| 2026-04-23 12:36 | 41.89918 | -81.61555 | 35091 ft | 475 kts | 92° |
| 2026-04-23 12:36 | 41.89098 | -81.52752 | 35090 ft | 475 kts | 92° |
| 2026-04-23 12:37 | 41.88298 | -81.43955 | 35091 ft | 475 kts | 92° |
| 2026-04-23 12:37 | 41.87496 | -81.35150 | 35090 ft | 475 kts | 92° |
| 2026-04-23 12:38 | 41.86692 | -81.26407 | 35088 ft | 475 kts | 92° |
| 2026-04-23 12:38 | 41.85873 | -81.17595 | 35090 ft | 475 kts | 92° |
| 2026-04-23 12:39 | 41.85048 | -81.08798 | 35096 ft | 475 kts | 92° |
| 2026-04-23 12:39 | 41.84214 | -80.99979 | 35098 ft | 476 kts | 92° |
| 2026-04-23 12:40 | 41.83379 | -80.91220 | 35094 ft | 476 kts | 92° |
| 2026-04-23 12:40 | 41.82532 | -80.82406 | 35099 ft | 476 kts | 92° |
| 2026-04-23 12:41 | 41.81676 | -80.73577 | 35090 ft | 477 kts | 92° |
| 2026-04-23 12:41 | 41.80821 | -80.64811 | 35096 ft | 477 kts | 92° |
| 2026-04-23 12:42 | 41.79952 | -80.55988 | 35094 ft | 477 kts | 92° |
| 2026-04-23 12:42 | 41.79072 | -80.47172 | 35088 ft | 478 kts | 92° |
| 2026-04-23 12:43 | 41.78185 | -80.38351 | 35077 ft | 478 kts | 92° |
| 2026-04-23 12:43 | 41.77290 | -80.29521 | 35081 ft | 478 kts | 92° |
| 2026-04-23 12:44 | 41.76391 | -80.20705 | 35083 ft | 478 kts | 92° |
| 2026-04-23 12:44 | 41.75483 | -80.11873 | 35074 ft | 478 kts | 92° |
| 2026-04-23 12:45 | 41.74576 | -80.03121 | 35078 ft | 478 kts | 92° |
| 2026-04-23 12:45 | 41.73656 | -79.94306 | 35080 ft | 478 kts | 92° |
| 2026-04-23 12:46 | 41.72880 | -79.86922 | 35076 ft | 478 kts | 92° |
| 2026-04-23 12:46 | 41.71952 | -79.78162 | 35075 ft | 478 kts | 92° |
| 2026-04-23 12:47 | 41.71012 | -79.69341 | 35073 ft | 479 kts | 92° |
| 2026-04-23 12:47 | 41.70064 | -79.60514 | 35078 ft | 479 kts | 92° |
| 2026-04-23 12:48 | 41.69107 | -79.51678 | 35082 ft | 479 kts | 92° |
| 2026-04-23 12:48 | 41.68144 | -79.42844 | 35089 ft | 480 kts | 92° |
| 2026-04-23 12:49 | 41.67172 | -79.33991 | 35082 ft | 481 kts | 92° |
| 2026-04-23 12:49 | 41.66199 | -79.25183 | 35085 ft | 481 kts | 92° |
| 2026-04-23 12:50 | 41.65213 | -79.16326 | 35079 ft | 481 kts | 92° |
| 2026-04-23 12:50 | 41.64224 | -79.07477 | 35081 ft | 481 kts | 92° |
| 2026-04-23 12:51 | 41.63227 | -78.98612 | 35092 ft | 482 kts | 92° |
| 2026-04-23 12:51 | 41.62224 | -78.89744 | 35086 ft | 483 kts | 92° |
| 2026-04-23 12:52 | 41.61213 | -78.80871 | 35085 ft | 483 kts | 92° |
| 2026-04-23 12:52 | 41.60193 | -78.71991 | 35091 ft | 483 kts | 92° |
| 2026-04-23 12:53 | 41.59167 | -78.63120 | 35096 ft | 483 kts | 92° |
| 2026-04-23 12:53 | 41.58141 | -78.54305 | 35090 ft | 483 kts | 92° |
| 2026-04-23 12:54 | 41.57102 | -78.45439 | 35080 ft | 484 kts | 92° |
| 2026-04-23 12:54 | 41.56053 | -78.36556 | 35081 ft | 483 kts | 92° |
| 2026-04-23 12:55 | 41.55002 | -78.27706 | 35077 ft | 483 kts | 92° |
| 2026-04-23 12:55 | 41.53940 | -78.18829 | 35076 ft | 483 kts | 92° |
| 2026-04-23 12:56 | 41.52873 | -78.09961 | 35065 ft | 484 kts | 92° |
| 2026-04-23 12:56 | 41.51798 | -78.01093 | 35095 ft | 483 kts | 92° |
| 2026-04-23 12:57 | 41.50687 | -77.92305 | 35080 ft | 484 kts | 94° |
| 2026-04-23 12:57 | 41.49426 | -77.83473 | 35075 ft | 484 kts | 94° |
| 2026-04-23 12:58 | 41.48144 | -77.74651 | 35068 ft | 485 kts | 94° |
| 2026-04-23 12:58 | 41.46870 | -77.65803 | 35061 ft | 485 kts | 94° |
| 2026-04-23 12:59 | 41.45599 | -77.56954 | 35055 ft | 486 kts | 94° |
| 2026-04-23 12:59 | 41.44327 | -77.48146 | 35067 ft | 487 kts | 94° |
| 2026-04-23 13:00 | 41.43039 | -77.39282 | 35057 ft | 487 kts | 94° |
| 2026-04-23 13:00 | 41.41743 | -77.30415 | 35053 ft | 487 kts | 94° |
| 2026-04-23 13:01 | 41.40448 | -77.21607 | 35068 ft | 486 kts | 94° |
| 2026-04-23 13:01 | 41.39137 | -77.12734 | 34796 ft | 491 kts | 94° |
| 2026-04-23 13:02 | 41.38476 | -77.08265 | 34248 ft | 492 kts | 95° |
| 2026-04-23 13:02 | 41.37811 | -77.03803 | 33710 ft | 490 kts | 95° |
| 2026-04-23 13:02 | 41.37147 | -76.99376 | 33253 ft | 485 kts | 94° |
| 2026-04-23 13:02 | 41.36489 | -76.94995 | 32824 ft | 480 kts | 94° |
| 2026-04-23 13:03 | 41.35838 | -76.90663 | 32390 ft | 475 kts | 94° |
| 2026-04-23 13:03 | 41.35194 | -76.86381 | 31976 ft | 469 kts | 94° |
| 2026-04-23 13:03 | 41.34557 | -76.82140 | 31528 ft | 466 kts | 94° |
| 2026-04-23 13:03 | 41.33918 | -76.77929 | 31105 ft | 463 kts | 95° |
| 2026-04-23 13:04 | 41.33084 | -76.73806 | 30888 ft | 459 kts | 101° |
| 2026-04-23 13:04 | 41.32039 | -76.69791 | 30499 ft | 458 kts | 104° |
| 2026-04-23 13:04 | 41.30918 | -76.65849 | 30116 ft | 455 kts | 104° |
| 2026-04-23 13:04 | 41.29791 | -76.61934 | 29855 ft | 447 kts | 104° |
| 2026-04-23 13:05 | 41.28409 | -76.58270 | 29810 ft | 449 kts | 116° |
| 2026-04-23 13:05 | 41.26881 | -76.54633 | 29725 ft | 453 kts | 108° |
| 2026-04-23 13:05 | 41.25734 | -76.50733 | 29912 ft | 450 kts | 99° |
| 2026-04-23 13:05 | 41.24853 | -76.46753 | 29907 ft | 449 kts | 99° |
| 2026-04-23 13:06 | 41.22968 | -76.38903 | 28925 ft | 445 kts | 101° |
| 2026-04-23 13:06 | 41.22029 | -76.35040 | 28340 ft | 445 kts | 101° |
| 2026-04-23 13:06 | 41.21073 | -76.31073 | 27803 ft | 444 kts | 101° |
| 2026-04-23 13:07 | 41.20142 | -76.27180 | 27360 ft | 441 kts | 101° |
| 2026-04-23 13:07 | 41.19230 | -76.23363 | 26936 ft | 438 kts | 101° |
| 2026-04-23 13:07 | 41.18304 | -76.19527 | 26496 ft | 436 kts | 103° |
| 2026-04-23 13:07 | 41.17283 | -76.15727 | 26048 ft | 435 kts | 104° |
| 2026-04-23 13:08 | 41.16226 | -76.11970 | 25642 ft | 434 kts | 105° |
| 2026-04-23 13:08 | 41.15183 | -76.08233 | 25240 ft | 431 kts | 105° |
| 2026-04-23 13:08 | 41.14159 | -76.04516 | 24847 ft | 427 kts | 104° |
| 2026-04-23 13:08 | 41.13145 | -76.00817 | 24417 ft | 426 kts | 105° |
| 2026-04-23 13:09 | 41.12132 | -75.97129 | 24007 ft | 424 kts | 105° |
| 2026-04-23 13:09 | 41.11124 | -75.93465 | 23604 ft | 422 kts | 105° |
| 2026-04-23 13:09 | 41.10119 | -75.89814 | 23164 ft | 420 kts | 105° |
| 2026-04-23 13:09 | 41.09120 | -75.86190 | 22723 ft | 418 kts | 105° |
| 2026-04-23 13:10 | 41.08123 | -75.82582 | 22309 ft | 415 kts | 105° |
| 2026-04-23 13:10 | 41.07132 | -75.78998 | 21904 ft | 412 kts | 105° |
| 2026-04-23 13:10 | 41.06148 | -75.75444 | 21482 ft | 410 kts | 106° |
| 2026-04-23 13:10 | 41.05167 | -75.71905 | 21069 ft | 408 kts | 106° |
| 2026-04-23 13:11 | 41.04191 | -75.68388 | 20664 ft | 405 kts | 106° |
| 2026-04-23 13:11 | 41.03231 | -75.64932 | 20254 ft | 403 kts | 106° |
| 2026-04-23 13:11 | 41.02265 | -75.61459 | 19861 ft | 401 kts | 106° |
| 2026-04-23 13:11 | 41.01299 | -75.57998 | 19475 ft | 399 kts | 107° |
| 2026-04-23 13:12 | 41.00338 | -75.54557 | 19106 ft | 397 kts | 107° |
| 2026-04-23 13:12 | 40.99381 | -75.51136 | 18740 ft | 395 kts | 107° |
| 2026-04-23 13:12 | 40.98429 | -75.47733 | 18352 ft | 393 kts | 107° |
| 2026-04-23 13:12 | 40.97481 | -75.44350 | 17916 ft | 392 kts | 107° |
| 2026-04-23 13:13 | 40.96536 | -75.40980 | 17553 ft | 388 kts | 107° |
| 2026-04-23 13:13 | 40.95596 | -75.37634 | 17191 ft | 385 kts | 107° |
| 2026-04-23 13:13 | 40.94677 | -75.34367 | 16811 ft | 383 kts | 107° |
| 2026-04-23 13:13 | 40.93747 | -75.31064 | 16372 ft | 382 kts | 107° |
| 2026-04-23 13:14 | 40.92821 | -75.27775 | 16015 ft | 380 kts | 108° |
| 2026-04-23 13:14 | 40.91907 | -75.24540 | 15872 ft | 370 kts | 108° |
| 2026-04-23 13:14 | 40.91015 | -75.21390 | 15775 ft | 360 kts | 108° |
| 2026-04-23 13:14 | 40.90155 | -75.18347 | 15725 ft | 348 kts | 107° |
| 2026-04-23 13:15 | 40.89319 | -75.15392 | 15653 ft | 338 kts | 108° |
| 2026-04-23 13:15 | 40.88503 | -75.12519 | 15584 ft | 329 kts | 108° |
| 2026-04-23 13:15 | 40.87641 | -75.09769 | 15460 ft | 322 kts | 120° |
| 2026-04-23 13:15 | 40.86179 | -75.07576 | 15233 ft | 317 kts | 147° |
| 2026-04-23 13:16 | 40.84229 | -75.06343 | 14934 ft | 307 kts | 173° |
| 2026-04-23 13:16 | 40.82161 | -75.06195 | 14668 ft | 291 kts | 197° |
| 2026-04-23 13:16 | 40.80304 | -75.07001 | 14408 ft | 274 kts | 219° |
| 2026-04-23 13:16 | 40.78862 | -75.08508 | 14163 ft | 258 kts | 238° |
| 2026-04-23 13:17 | 40.77929 | -75.10408 | 13919 ft | 246 kts | 255° |
| 2026-04-23 13:17 | 40.77438 | -75.12523 | 13628 ft | 238 kts | 266° |
| 2026-04-23 13:17 | 40.77309 | -75.14668 | 13321 ft | 232 kts | 279° |
| 2026-04-23 13:17 | 40.77645 | -75.16717 | 13037 ft | 227 kts | 290° |
| 2026-04-23 13:18 | 40.78167 | -75.18685 | 12749 ft | 226 kts | 292° |
| 2026-04-23 13:18 | 40.78710 | -75.20629 | 12461 ft | 225 kts | 292° |
| 2026-04-23 13:18 | 40.79248 | -75.22565 | 12205 ft | 224 kts | 292° |
| 2026-04-23 13:18 | 40.79782 | -75.24496 | 11947 ft | 224 kts | 292° |
| 2026-04-23 13:19 | 40.80306 | -75.26398 | 11915 ft | 217 kts | 292° |
| 2026-04-23 13:19 | 40.80920 | -75.28190 | 11904 ft | 214 kts | 306° |
| 2026-04-23 13:19 | 40.81931 | -75.29651 | 11910 ft | 216 kts | 317° |
| 2026-04-23 13:19 | 40.83154 | -75.30766 | 11926 ft | 214 kts | 329° |
| 2026-04-23 13:20 | 40.84537 | -75.31454 | 11914 ft | 213 kts | 342° |
| 2026-04-23 13:20 | 40.86028 | -75.31644 | 11929 ft | 219 kts | 355° |
| 2026-04-23 13:20 | 40.87551 | -75.31285 | 11930 ft | 233 kts | 11° |
| 2026-04-23 13:20 | 40.89034 | -75.30302 | 11925 ft | 246 kts | 27° |
| 2026-04-23 13:21 | 40.90273 | -75.28684 | 11902 ft | 256 kts | 47° |
| 2026-04-23 13:21 | 40.91056 | -75.26542 | 11938 ft | 265 kts | 67° |
| 2026-04-23 13:21 | 40.91344 | -75.24095 | 11923 ft | 276 kts | 84° |
| 2026-04-23 13:21 | 40.90983 | -75.21587 | 11930 ft | 280 kts | 106° |
| 2026-04-23 13:22 | 40.90327 | -75.19163 | 11929 ft | 280 kts | 107° |
| 2026-04-23 13:22 | 40.89667 | -75.16768 | 11920 ft | 274 kts | 107° |
| 2026-04-23 13:22 | 40.89009 | -75.14384 | 11769 ft | 280 kts | 107° |
| 2026-04-23 13:22 | 40.88336 | -75.11939 | 11456 ft | 283 kts | 107° |
| 2026-04-23 13:23 | 40.87663 | -75.09523 | 11215 ft | 278 kts | 107° |
| 2026-04-23 13:23 | 40.86993 | -75.07155 | 10961 ft | 272 kts | 107° |
| 2026-04-23 13:23 | 40.86335 | -75.04833 | 10701 ft | 267 kts | 107° |
| 2026-04-23 13:23 | 40.85691 | -75.02556 | 10450 ft | 262 kts | 107° |
| 2026-04-23 13:24 | 40.85057 | -75.00312 | 10212 ft | 259 kts | 107° |
| 2026-04-23 13:24 | 40.84428 | -74.98089 | 10080 ft | 257 kts | 107° |
| 2026-04-23 13:24 | 40.83804 | -74.95882 | 10048 ft | 262 kts | 106° |
| 2026-04-23 13:24 | 40.83161 | -74.93614 | 10041 ft | 259 kts | 107° |
| 2026-04-23 13:25 | 40.82495 | -74.91456 | 10000 ft | 256 kts | 115° |
| 2026-04-23 13:25 | 40.81592 | -74.89443 | 10016 ft | 256 kts | 120° |
| 2026-04-23 13:25 | 40.80611 | -74.87461 | 10037 ft | 259 kts | 122° |
| 2026-04-23 13:25 | 40.79612 | -74.85463 | 9943 ft | 263 kts | 121° |
| 2026-04-23 13:26 | 40.78597 | -74.83418 | 9486 ft | 272 kts | 121° |
| 2026-04-23 13:26 | 40.77573 | -74.81335 | 9110 ft | 266 kts | 121° |
| 2026-04-23 13:26 | 40.76589 | -74.79324 | 8817 ft | 256 kts | 121° |
| 2026-04-23 13:26 | 40.75646 | -74.77387 | 8543 ft | 247 kts | 121° |
| 2026-04-23 13:27 | 40.74731 | -74.75501 | 8323 ft | 242 kts | 121° |
| 2026-04-23 13:27 | 40.73827 | -74.73633 | 8112 ft | 241 kts | 120° |
| 2026-04-23 13:27 | 40.72931 | -74.71777 | 7917 ft | 244 kts | 120° |
| 2026-04-23 13:27 | 40.72016 | -74.69880 | 7689 ft | 246 kts | 121° |
| 2026-04-23 13:28 | 40.71096 | -74.67974 | 7465 ft | 246 kts | 121° |
| 2026-04-23 13:28 | 40.70190 | -74.66098 | 7372 ft | 239 kts | 120° |
| 2026-04-23 13:28 | 40.69290 | -74.64234 | 7163 ft | 243 kts | 120° |
| 2026-04-23 13:28 | 40.68377 | -74.62342 | 6948 ft | 244 kts | 121° |
| 2026-04-23 13:29 | 40.67465 | -74.60453 | 6692 ft | 243 kts | 121° |
| 2026-04-23 13:29 | 40.66564 | -74.58590 | 6448 ft | 239 kts | 121° |
| 2026-04-23 13:29 | 40.65676 | -74.56755 | 6190 ft | 236 kts | 121° |
| 2026-04-23 13:29 | 40.64799 | -74.54944 | 5931 ft | 232 kts | 121° |
| 2026-04-23 13:30 | 40.63941 | -74.53171 | 5687 ft | 228 kts | 121° |
| 2026-04-23 13:30 | 40.63094 | -74.51424 | 5447 ft | 224 kts | 121° |
| 2026-04-23 13:30 | 40.62274 | -74.49731 | 5226 ft | 221 kts | 121° |
| 2026-04-23 13:30 | 40.61436 | -74.48004 | 5019 ft | 222 kts | 120° |
| 2026-04-23 13:31 | 40.60884 | -74.46866 | 4872 ft | 223 kts | 121° |
| 2026-04-23 13:31 | 40.59779 | -74.44585 | 4621 ft | 223 kts | 120° |
| 2026-04-23 13:31 | 40.58945 | -74.42867 | 4379 ft | 223 kts | 120° |
| 2026-04-23 13:31 | 40.58112 | -74.41152 | 4174 ft | 221 kts | 120° |
| 2026-04-23 13:32 | 40.57553 | -74.40003 | 4024 ft | 221 kts | 121° |
| 2026-04-23 13:32 | 40.56468 | -74.37772 | 3828 ft | 213 kts | 120° |
| 2026-04-23 13:32 | 40.55935 | -74.36676 | 3748 ft | 210 kts | 120° |
| 2026-04-23 13:32 | 40.55153 | -74.35069 | 3661 ft | 208 kts | 120° |
| 2026-04-23 13:33 | 40.54380 | -74.33485 | 3571 ft | 208 kts | 121° |
| 2026-04-23 13:33 | 40.53601 | -74.31889 | 3482 ft | 208 kts | 120° |
| 2026-04-23 13:33 | 40.52855 | -74.30267 | 3381 ft | 206 kts | 109° |
| 2026-04-23 13:33 | 40.52824 | -74.28495 | 3320 ft | 191 kts | 60° |
| 2026-04-23 13:34 | 40.53674 | -74.27228 | 3184 ft | 185 kts | 35° |
| 2026-04-23 13:34 | 40.54663 | -74.26214 | 2940 ft | 186 kts | 31° |
| 2026-04-23 13:34 | 40.55736 | -74.25288 | 2699 ft | 183 kts | 30° |
| 2026-04-23 13:34 | 40.56809 | -74.24455 | 2469 ft | 178 kts | 26° |
| 2026-04-23 13:35 | 40.57876 | -74.23739 | 2230 ft | 166 kts | 24° |
| 2026-04-23 13:35 | 40.58878 | -74.23095 | 2022 ft | 154 kts | 23° |
| 2026-04-23 13:35 | 40.59807 | -74.22502 | 1836 ft | 141 kts | 23° |
| 2026-04-23 13:35 | 40.60647 | -74.21966 | 1679 ft | 131 kts | 23° |
| 2026-04-23 13:36 | 40.61480 | -74.21435 | 1478 ft | 133 kts | 23° |
| 2026-04-23 13:36 | 40.62303 | -74.20910 | 1299 ft | 133 kts | 23° |
| 2026-04-23 13:36 | 40.63158 | -74.20364 | 1111 ft | 135 kts | 23° |
| 2026-04-23 13:36 | 40.64004 | -74.19829 | 929 ft | 136 kts | 24° |
| 2026-04-23 13:37 | 40.64847 | -74.19280 | 729 ft | 138 kts | 24° |
| 2026-04-23 13:37 | 40.65701 | -74.18745 | 550 ft | 136 kts | 24° |
| 2026-04-23 13:37 | 40.66542 | -74.18198 | 372 ft | 135 kts | 20° |
| 2026-04-23 13:37 | 40.67385 | -74.17663 | 210 ft | 134 kts | 24° |
| 2026-04-23 13:38 | 40.68231 | -74.17123 | 30 ft | 132 kts | 21° |
| 2026-04-23 13:38 | 40.68921 | -74.16685 | 21 ft | 80 kts | 26° |
| 2026-04-23 13:38 | 40.69188 | -74.16517 | 24 ft | 16 kts | 22° |
| 2026-04-23 13:38 | 40.69289 | -74.16463 | 24 ft | 15 kts | 15° |
| 2026-04-23 13:39 | 40.69392 | -74.16450 | 25 ft | 15 kts | 357° |
| 2026-04-23 13:39 | 40.69493 | -74.16459 | 22 ft | 14 kts | 355° |
| 2026-04-23 13:39 | 40.69588 | -74.16486 | 21 ft | 14 kts | 322° |
| 2026-04-23 13:39 | 40.69636 | -74.16589 | 21 ft | 13 kts | 296° |
| 2026-04-23 13:40 | 40.69674 | -74.16697 | 21 ft | 13 kts | 289° |
| 2026-04-23 13:40 | 40.69672 | -74.16810 | 21 ft | 12 kts | 251° |
| 2026-04-23 13:40 | 40.69643 | -74.16917 | 21 ft | 12 kts | 250° |
| 2026-04-23 13:40 | 40.69616 | -74.17020 | 21 ft | 12 kts | 250° |
| 2026-04-23 13:41 | 40.69625 | -74.17116 | 22 ft | 12 kts | 324° |
| 2026-04-23 13:41 | 40.69694 | -74.17166 | 21 ft | 11 kts | 327° |
| 2026-04-23 13:41 | 40.69756 | -74.17225 | 21 ft | 11 kts | 319° |
| 2026-04-23 13:41 | 40.69777 | -74.17309 | 21 ft | 11 kts | 239° |
| 2026-04-23 13:42 | 40.69723 | -74.17371 | 21 ft | 10 kts | 219° |
| 2026-04-23 13:42 | 40.69710 | -74.17386 | 21 ft | 1 kts | 220° |
| 2026-04-23 13:42 | 40.69700 | -74.17398 | 21 ft | 4 kts | 225° |
| 2026-04-23 13:42 | 40.69691 | -74.17423 | 22 ft | 3 kts | 262° |
| 2026-04-23 13:43 | 40.69707 | -74.17464 | 23 ft | 2 kts | 304° |
| 2026-04-23 13:43 | 40.69710 | -74.17469 | 22 ft | 2 kts | 305° |